Esmont, Virginia
Current Conditions -  °F | °C
As of 2:53 PM on Friday 24 Oct 2014 (Local Time) from KCHO Reporting Station
Clear Clear  
Wind Chill: 68°   Ceiling: Unl
Heat Index: 68°   Visibility: 10mi
Dew Point: 38°   Wind: 0mph
Humidity: 33%   Direction: NA
Pressure: 29.95"   Gusts: NA
Location:  37.83°N, 78.61°W
Report Text: KCHO 241853Z 00000KT 10SM CLR 20/03 A2995 RMK AO2 SLP137 T02000033
Loading
Personal Weather Stations






























Interactive Weather Map
Tropical Storm Tracking
New forecast layout! Learn more

10-Day Weather Forecast

Advertisements
Track Severe Weather on mobile